x

Boston 16 Nm East Of Boston, Ma (44013) Wave Buoy

5:50 - Sat 25th Jun 2016 All times are EDT. -4 hours from GMT.

  • Sig Wave height 1.3ft
  • Swell Direction
  • Peak Period 8s
  • Average Period 5s
  • Wind
    11mph
  • Sea Temp 65°f
  • Luft Temp 64°f
  • Sea Pressure 1022.3mb
  • Boston 16 Nm East Of Boston, Ma
  • Boston 16 Nm East Of Boston, Ma

More Historic Weather Station data

Upgrade to MSW Pro to gain access to the past 30 days of data for over 8000 Wavebouys and Weather Stations around the globe.

Join Pro

Comparision Forecast

View Surf forecast
   
Sa 06/25 5:50 1.3ft 8s 5s 11
mph
1022.3mb 65f 64f
4:50 1.3ft 9s 5s 9 11 mph 1022.4mb 65f 65f
3:50 1.3ft 8s 6s 9 11 mph 1022.3mb 65f 65f
2:50 1.3ft 8s 5s 9 11 mph 1023mb 65f 65f
1:50 1.3ft 9s 5s 7
mph
1023.4mb 65f 65f
12:50 1.3ft 8s 6s 7
mph
1023.2mb 65f 64f
11:50 1.3ft 8s 6s 7
mph
1023.5mb 65f 63f
10:50 1.3ft 8s 6s 9 11 mph 1023.8mb 64f 63f
9:50 1.3ft 8s 6s 4 7 mph 1023.4mb 65f 64f
8:50 1.3ft 7s 6s 2 4 mph 1023.2mb 64f 64f
7:50 1.3ft 8s 5s 2
mph
1023.1mb 63f 64f
6:50 1.3ft 8s 5s 2
mph
1022.6mb 63f 65f
5:50 1.3ft 8s 5s  -  mph 1022mb 63f 65f
4:50 1.3ft 7s 5s  -  2 mph 1021.4mb 63f 62f
3:50 1.3ft 9s 5s 2
mph
1021.1mb 63f 63f
2:50 1.3ft 8s 5s 2
mph
1021.2mb 63f 62f
1:50 1.3ft 8s 5s 4
mph
1020.8mb 63f 63f
12:50 1.3ft 7s 4s 7
mph
1020.7mb 64f 64f
Fr 06/24 11:50 1.3ft 6s 5s 7
mph
1020.7mb 64f 64f
10:50 1.3ft 7s 4s 4 7 mph 1020.7mb 64f 64f
9:50 1.3ft 8s 5s 7
mph
1020.5mb 64f 64f
8:50 1ft 7s 4s 7 9 mph 1019.9mb 64f 64f
7:50 1ft 7s 4s 11
mph
1019.5mb 64f 65f
6:50 1ft 8s 3s 11 13 mph 1019.3mb 64f 65f
5:50 1ft 8s 5s 13 16 mph 1019.1mb 64f 65f
4:50 1ft 8s 4s 11
mph
1019.1mb 65f 65f
3:50 1ft 8s 5s 9 11 mph 1019.4mb 65f 65f
2:50 1.3ft 8s 4s 7 9 mph 1019.4mb 66f 64f
1:50 1.3ft 8s 4s 4
mph
1019.5mb 65f 64f
12:50 1.6ft 8s 5s 4 7 mph 1019.4mb 64f 63f
11:50 1.6ft 7s 5s 9 11 mph 1019.2mb 64f 63f
10:50 1.6ft 7s 5s 11
mph
1018.8mb 63f 63f
9:50 1.3ft 7s 6s 11 13 mph 1018.4mb 63f 63f
8:50 1.3ft 7s 6s 7 9 mph 1017.9mb 63f 64f
7:50 1ft 8s 5s 7 9 mph 1016.9mb 63f 63f
6:50 1ft 8s 6s 9 11 mph 1015.8mb 63f 63f
5:50 1ft 8s 5s 2
mph
1015.1mb 63f 63f
4:50 1.3ft 8s 5s 9
mph
1013.9mb 63f 62f
3:50 1.3ft 8s 5s 9
mph
1013.2mb 63f 62f
2:50 1.3ft 8s 5s 11 13 mph 1012.5mb 63f 62f
1:50 1.6ft 8s 5s 4 7 mph 1012.2mb 63f 62f
12:50 1.6ft 8s 5s 4 7 mph 1011.8mb 62f 62f
Do 06/23 11:50 1.6ft 8s 5s 4 7 mph 1011.8mb 62f 62f
10:50 1.6ft 8s 5s 9 11 mph 1011.3mb 63f 62f
9:50 1.6ft 7s 5s 7 9 mph 1010.8mb 63f 63f
8:50 1.3ft 8s 5s 9 11 mph 1010mb 62f 64f
7:50 1.3ft 8s 5s 13
mph
1009.5mb 63f 65f
6:50 1.3ft 8s 4s 13 16 mph 1009.3mb 63f 65f
5:50 1.3ft 8s 3s 13 16 mph 1009.6mb 64f 65f
4:50 1.3ft 8s 4s 13
mph
1009.7mb 64f 65f
3:50 1.3ft 9s 5s 13 16 mph 1009.7mb 64f 65f
2:50 1.3ft 9s 5s 11 13 mph 1010mb 64f 65f
1:50 1.6ft 8s 5s 11
mph
1010.6mb 65f 65f
12:50 1.6ft 8s 5s 9 11 mph 1011.2mb 65f 65f
11:50 1.6ft 6s 6s 2 4 mph 1012.2mb 64f 66f
10:50 1.6ft 7s 6s 2
mph
1012.3mb 63f 64f
9:50 1.6ft 9s 6s 4 7 mph 1012.3mb 62f 63f
8:50 1.6ft 8s 6s 9 11 mph 1012.9mb 62f 63f
7:50 1.6ft 8s 6s 9 11 mph 1012.8mb 62f 61f
6:50 1.6ft 8s 6s 9 11 mph 1012.6mb 62f 61f
5:50 1.3ft 9s 7s 11
mph
1012.4mb 62f 61f
3:50 1ft 8s 7s 7 9 mph 1011.8mb 62f 62f
2:50 1.3ft 8s 6s 9
mph
1011.5mb 62f 64f
1:50 1.3ft 8s 6s 11
mph
1011.8mb 62f 64f
12:50 1.3ft 8s 6s 9 11 mph 1012mb 62f 65f
Mi 06/22 11:50 1.6ft 8s 6s 7 9 mph 1012.2mb 62f 64f
10:50 1.6ft 8s 6s 7 9 mph 1011.9mb 62f 64f
9:50 1.6ft 8s 6s 7 9 mph 1011.4mb 63f 64f
8:50 1.6ft 8s 6s 7
mph
1010.9mb 63f 64f
7:50 1.6ft 8s 6s 7
mph
1010.5mb 63f 64f
6:50 1.6ft 8s 6s 7 9 mph 1010mb 63f 64f
5:50 1.6ft 8s 6s 4 7 mph 1009.2mb 63f 64f
4:50 1.6ft 8s 5s 4 7 mph 1009mb 63f 64f
3:50 1.6ft 8s 4s 4
mph
1009.3mb 63f 64f
2:50 1.6ft 9s 4s 11 13 mph 1009.6mb 62f 63f
1:50 2ft 8s 6s 4
mph
1008mb 63f 66f
12:50 2ft 8s 6s 9 11 mph 1007.9mb 63f 65f
11:50 2ft 8s 6s 4
mph
1008.3mb 62f 66f
10:50 2.5ft 8s 7s 2 4 mph 1008.7mb 63f 66f
9:50 2.5ft 8s 7s 4 7 mph 1008.7mb 62f 63f
8:50 2.5ft 8s 7s 7 9 mph 1008.7mb 62f 62f
7:50 2.5ft 8s 7s 9 11 mph 1008.9mb 61f 62f
6:50 2ft 8s 7s 11
mph
1008.5mb 61f 62f
5:50 1.6ft 8s 7s 9 11 mph 1008.2mb 61f 62f
4:50 2ft 8s 8s 9 11 mph 1008mb 61f 62f
3:50 1.6ft 9s 8s 9 11 mph 1008mb 61f 63f
2:50 1.6ft 9s 7s 9 11 mph 1008.2mb 61f 65f
1:50 2ft 9s 7s 9 11 mph 1008.4mb 61f 65f
12:50 2ft 9s 6s 7 9 mph 1008.3mb 61f 65f
Di 06/21 11:50 2.5ft 9s 6s 9
mph
1008.1mb 61f 66f